createdAt,value
2022-12-31T00:02:05.500Z,1.40
2022-12-31T00:06:26.948Z,1.37
2022-12-31T00:10:29.460Z,0.97
2022-12-31T00:14:31.333Z,0.70
2022-12-31T00:18:33.140Z,0.70
2022-12-31T00:22:34.899Z,1.10
2022-12-31T00:26:37.212Z,1.30
2022-12-31T00:30:39.061Z,1.67
2022-12-31T00:34:40.936Z,0.63
2022-12-31T00:38:45.173Z,3.20
2022-12-31T00:42:47.074Z,0.70
2022-12-31T00:46:48.997Z,0.87
2022-12-31T00:50:50.961Z,0.80
2022-12-31T00:54:52.713Z,0.80
2022-12-31T00:58:54.743Z,0.60
2022-12-31T01:02:56.627Z,0.90
2022-12-31T01:06:58.478Z,1.10
2022-12-31T01:11:19.933Z,0.90
2022-12-31T01:15:21.691Z,1.35
2022-12-31T01:19:26.415Z,0.80
2022-12-31T01:23:28.174Z,1.00
2022-12-31T01:27:29.905Z,2.97
2022-12-31T01:31:34.319Z,1.30
2022-12-31T01:35:36.759Z,1.00
2022-12-31T01:39:38.569Z,1.33
2022-12-31T01:43:54.364Z,2.33
2022-12-31T01:47:59.830Z,1.30
2022-12-31T01:52:27.885Z,1.30
2022-12-31T01:56:29.759Z,2.80
2022-12-31T02:00:32.588Z,2.00
2022-12-31T02:04:34.535Z,1.00
2022-12-31T02:08:41.924Z,1.00
2022-12-31T02:12:44.298Z,1.03
2022-12-31T02:16:51.607Z,1.87
2022-12-31T02:21:26.636Z,3.57
2022-12-31T02:25:39.282Z,2.60
2022-12-31T02:29:49.745Z,1.27
2022-12-31T02:33:59.328Z,1.17
2022-12-31T02:38:07.955Z,1.40
2022-12-31T02:42:11.393Z,2.80
2022-12-31T02:46:30.783Z,3.57
2022-12-31T02:50:59.205Z,1.30
2022-12-31T02:55:13.319Z,1.50
2022-12-31T02:59:45.777Z,1.87
2022-12-31T03:03:47.623Z,1.20
2022-12-31T03:07:49.703Z,2.47
2022-12-31T03:12:09.926Z,1.40
2022-12-31T03:16:11.955Z,1.57
2022-12-31T03:20:32.215Z,1.43
2022-12-31T03:24:52.631Z,1.30
2022-12-31T03:28:54.429Z,2.00
2022-12-31T03:32:56.772Z,1.33
2022-12-31T03:36:58.631Z,1.40
2022-12-31T03:41:00.490Z,1.53
2022-12-31T03:45:02.956Z,1.10
2022-12-31T03:49:04.879Z,1.67
2022-12-31T03:53:06.826Z,1.53
2022-12-31T03:57:08.622Z,1.43
2022-12-31T04:01:10.419Z,1.33
2022-12-31T04:05:12.384Z,4.50
2022-12-31T04:09:14.324Z,2.00
2022-12-31T04:13:16.169Z,1.50
2022-12-31T04:17:18.068Z,1.40
2022-12-31T04:21:19.936Z,2.40
2022-12-31T04:25:21.703Z,1.37
2022-12-31T04:29:23.726Z,2.20
2022-12-31T04:33:25.570Z,1.10
2022-12-31T04:37:27.405Z,1.27
2022-12-31T04:41:29.253Z,1.10
2022-12-31T04:45:31.116Z,1.20
2022-12-31T04:49:32.945Z,1.60
2022-12-31T04:53:34.752Z,1.20
2022-12-31T04:57:36.513Z,1.20
2022-12-31T05:01:39.405Z,2.90
2022-12-31T05:05:44.954Z,1.13
2022-12-31T05:09:46.793Z,2.87
2022-12-31T05:13:48.662Z,1.57
2022-12-31T05:17:50.610Z,3.43
2022-12-31T05:22:10.979Z,1.57
2022-12-31T05:26:12.770Z,2.40
2022-12-31T05:30:14.893Z,1.70
2022-12-31T05:34:16.666Z,2.53
2022-12-31T05:38:18.511Z,1.30
2022-12-31T05:42:20.658Z,1.43
2022-12-31T05:46:22.458Z,1.07
2022-12-31T05:50:24.775Z,1.03
2022-12-31T05:54:30.866Z,4.77
2022-12-31T05:58:32.640Z,2.90
2022-12-31T06:02:34.556Z,2.07
2022-12-31T06:06:36.377Z,0.80
2022-12-31T06:10:38.797Z,1.40
2022-12-31T06:14:45.408Z,0.87
2022-12-31T06:18:50.724Z,1.80
2022-12-31T06:22:52.455Z,2.30
2022-12-31T06:26:54.231Z,0.80
2022-12-31T06:31:00.805Z,1.73
2022-12-31T06:35:02.695Z,0.97
2022-12-31T06:39:04.907Z,3.03
2022-12-31T06:43:06.904Z,1.60
2022-12-31T06:47:08.679Z,1.50
2022-12-31T06:51:17.845Z,3.57
2022-12-31T06:55:20.777Z,2.10
2022-12-31T06:59:28.492Z,2.07
2022-12-31T07:04:15.053Z,2.83
2022-12-31T07:08:45.203Z,2.13
2022-12-31T07:13:08.188Z,2.03
2022-12-31T07:17:28.134Z,3.40
2022-12-31T07:21:36.569Z,6.33
2022-12-31T07:25:43.288Z,5.43
2022-12-31T07:29:50.371Z,5.47
2022-12-31T07:33:59.610Z,6.20
2022-12-31T07:38:38.763Z,3.30
2022-12-31T07:43:19.380Z,7.87
2022-12-31T07:47:26.742Z,2.80
2022-12-31T07:51:28.813Z,1.53
2022-12-31T07:55:30.794Z,2.73
2022-12-31T07:59:33.545Z,3.77
2022-12-31T08:04:02.797Z,4.30
2022-12-31T08:08:26.524Z,10.23
2022-12-31T08:12:34.009Z,5.37
2022-12-31T08:16:36.111Z,8.27
2022-12-31T08:20:52.397Z,4.90
2022-12-31T08:25:03.066Z,6.70
2022-12-31T08:29:04.792Z,4.00
2022-12-31T08:33:22.284Z,40.47
2022-12-31T08:37:40.041Z,26.97
2022-12-31T08:41:45.015Z,6.00
2022-12-31T08:45:51.030Z,1.90
2022-12-31T08:49:53.143Z,11.67
2022-12-31T08:53:55.668Z,35.13
2022-12-31T08:58:00.248Z,8.83
2022-12-31T09:02:07.804Z,3.07
2022-12-31T09:06:29.211Z,3.57
2022-12-31T09:10:40.373Z,1.73
2022-12-31T09:14:53.741Z,1.50
2022-12-31T09:18:55.559Z,4.27
2022-12-31T09:22:58.828Z,2.97
2022-12-31T09:27:27.446Z,1.67
2022-12-31T09:31:47.129Z,2.40
2022-12-31T09:35:54.206Z,2.23
2022-12-31T09:40:00.167Z,1.53
2022-12-31T09:44:23.251Z,1.73
2022-12-31T09:48:50.878Z,2.73
2022-12-31T09:52:52.588Z,1.60
2022-12-31T09:57:06.264Z,2.45
2022-12-31T10:01:26.678Z,1.57
2022-12-31T10:05:31.610Z,5.63
2022-12-31T10:09:50.073Z,5.13
2022-12-31T10:14:47.182Z,4.03
2022-12-31T10:19:24.006Z,4.30
2022-12-31T10:23:28.551Z,3.67
2022-12-31T10:27:55.201Z,1.35
2022-12-31T10:32:24.914Z,1.47
2022-12-31T10:37:02.167Z,1.90
2022-12-31T10:41:34.334Z,1.65
2022-12-31T10:45:58.234Z,1.50
2022-12-31T10:50:20.413Z,1.80
2022-12-31T10:54:50.001Z,3.53
2022-12-31T10:59:13.724Z,3.73
2022-12-31T11:03:36.703Z,2.33
2022-12-31T11:07:46.467Z,2.63
2022-12-31T11:12:13.305Z,1.63
2022-12-31T11:16:36.803Z,2.40
2022-12-31T11:21:11.809Z,1.38
2022-12-31T11:25:19.519Z,1.47
2022-12-31T11:29:45.200Z,1.83
2022-12-31T11:34:02.053Z,1.37
2022-12-31T11:38:21.696Z,1.30
2022-12-31T11:42:32.069Z,1.67
2022-12-31T11:46:37.008Z,2.03
2022-12-31T11:50:59.461Z,1.27
2022-12-31T11:55:20.002Z,1.27
2022-12-31T11:59:22.330Z,1.40
2022-12-31T12:03:24.626Z,2.83
2022-12-31T12:07:27.876Z,2.22
2022-12-31T12:11:35.301Z,1.73
2022-12-31T12:15:37.095Z,1.35
2022-12-31T12:19:44.434Z,1.25
2022-12-31T12:24:06.438Z,2.65
2022-12-31T12:28:44.304Z,1.85
2022-12-31T12:33:01.737Z,1.20
2022-12-31T12:37:04.635Z,1.13
2022-12-31T12:41:18.284Z,2.58
2022-12-31T12:45:26.854Z,1.40
2022-12-31T12:49:49.198Z,3.13
2022-12-31T12:53:57.950Z,3.20
2022-12-31T12:58:26.485Z,1.67
2022-12-31T13:02:43.563Z,1.60
2022-12-31T13:07:17.807Z,2.13
2022-12-31T13:11:30.977Z,1.60
2022-12-31T13:15:48.453Z,2.78
2022-12-31T13:19:59.011Z,3.80
2022-12-31T13:24:31.436Z,2.95
2022-12-31T13:28:35.500Z,3.75
2022-12-31T13:32:42.323Z,2.45
2022-12-31T13:36:47.372Z,9.32
2022-12-31T13:41:07.710Z,5.30
2022-12-31T13:45:22.393Z,4.40
2022-12-31T13:49:31.581Z,3.53
2022-12-31T13:54:24.485Z,2.15
2022-12-31T13:58:37.006Z,4.38
2022-12-31T14:02:52.190Z,2.50
2022-12-31T14:06:57.787Z,3.40
2022-12-31T14:11:18.414Z,2.80
2022-12-31T14:15:25.713Z,3.75
2022-12-31T14:20:07.882Z,4.13
2022-12-31T14:24:30.689Z,2.33
2022-12-31T14:29:01.188Z,2.10
2022-12-31T14:33:28.328Z,1.45
2022-12-31T14:37:51.376Z,3.78
2022-12-31T14:42:10.160Z,2.63
2022-12-31T14:46:18.311Z,3.97
2022-12-31T14:50:28.951Z,9.02
2022-12-31T14:54:37.927Z,9.30
2022-12-31T14:58:42.398Z,11.70
2022-12-31T15:02:49.983Z,8.32
2022-12-31T15:07:01.395Z,9.27
2022-12-31T15:11:16.494Z,8.10
2022-12-31T15:15:44.191Z,9.50
2022-12-31T15:20:17.511Z,10.25
2022-12-31T15:24:30.534Z,14.07
2022-12-31T15:28:34.654Z,19.75
2022-12-31T15:32:41.046Z,27.27
2022-12-31T15:36:55.812Z,16.33
2022-12-31T15:40:58.424Z,9.63
2022-12-31T15:45:07.257Z,9.97
2022-12-31T15:49:18.661Z,7.70
2022-12-31T15:53:43.287Z,17.77
2022-12-31T15:57:46.541Z,14.03
2022-12-31T16:01:48.781Z,17.07
2022-12-31T16:05:53.665Z,18.90
2022-12-31T16:09:59.037Z,21.40
2022-12-31T16:14:01.060Z,26.97
2022-12-31T16:18:14.671Z,25.47
2022-12-31T16:22:26.884Z,20.73
2022-12-31T16:26:33.969Z,15.97
2022-12-31T16:30:36.336Z,14.93
2022-12-31T16:34:38.426Z,26.97
2022-12-31T16:38:40.807Z,15.70
2022-12-31T16:42:45.548Z,11.77
2022-12-31T16:46:47.640Z,7.17
2022-12-31T16:50:56.617Z,6.43
2022-12-31T16:54:59.003Z,3.97
2022-12-31T16:59:05.077Z,7.53
2022-12-31T17:03:24.567Z,3.20
2022-12-31T17:07:32.482Z,3.73
2022-12-31T17:12:01.845Z,4.10
2022-12-31T17:16:03.961Z,5.87
2022-12-31T17:20:11.039Z,4.47
2022-12-31T17:24:13.571Z,3.67
2022-12-31T17:28:24.616Z,7.17
2022-12-31T17:32:45.464Z,5.60
2022-12-31T17:36:58.285Z,3.67
2022-12-31T17:41:06.175Z,8.50
2022-12-31T17:45:18.447Z,5.53
2022-12-31T17:49:27.212Z,7.93
2022-12-31T17:53:29.285Z,8.60
2022-12-31T17:57:31.115Z,7.30
2022-12-31T18:01:33.153Z,12.37
2022-12-31T18:05:35.150Z,12.73
2022-12-31T18:09:36.957Z,22.97
2022-12-31T18:13:38.745Z,14.57
2022-12-31T18:17:40.724Z,13.97
2022-12-31T18:21:43.894Z,17.00
2022-12-31T18:29:47.005Z,13.93
2022-12-31T18:33:50.358Z,14.20
2022-12-31T18:37:52.369Z,16.53
2022-12-31T18:41:54.194Z,21.50
2022-12-31T18:45:56.182Z,20.97
2022-12-31T18:49:58.023Z,23.10
2022-12-31T18:54:01.078Z,20.50
2022-12-31T18:58:02.961Z,20.97
2022-12-31T19:02:07.209Z,19.73
2022-12-31T19:06:09.109Z,17.27
2022-12-31T19:10:13.450Z,33.27
2022-12-31T19:14:18.497Z,27.07
2022-12-31T19:18:20.270Z,81.13
2022-12-31T19:22:22.048Z,72.13
2022-12-31T19:26:23.908Z,77.80
2022-12-31T19:30:32.101Z,64.67
2022-12-31T19:34:33.895Z,58.70
2022-12-31T19:38:35.677Z,53.10
2022-12-31T19:42:38.071Z,78.47
2022-12-31T19:46:39.853Z,111.10
2022-12-31T19:50:45.234Z,100.23
2022-12-31T19:54:47.089Z,288.73
2022-12-31T19:58:48.842Z,142.57
2022-12-31T20:02:50.808Z,103.90
2022-12-31T20:06:52.734Z,117.63
2022-12-31T20:10:58.702Z,274.37
2022-12-31T20:15:00.805Z,173.50
2022-12-31T20:19:02.771Z,142.20
2022-12-31T20:23:04.585Z,86.43
2022-12-31T20:27:07.394Z,100.70
2022-12-31T20:31:18.132Z,86.93
2022-12-31T20:35:20.101Z,80.17
2022-12-31T20:39:22.333Z,99.97
2022-12-31T20:43:24.156Z,109.07
2022-12-31T20:47:25.911Z,105.60
2022-12-31T20:51:29.698Z,107.93
2022-12-31T20:55:32.219Z,109.07
2022-12-31T20:59:34.098Z,128.30
2022-12-31T21:08:02.840Z,81.60
2022-12-31T21:12:23.504Z,80.87
2022-12-31T21:16:26.193Z,100.13
2022-12-31T21:20:28.039Z,141.90
2022-12-31T21:24:30.430Z,122.53
2022-12-31T21:28:32.914Z,130.13
2022-12-31T21:32:34.684Z,144.70
2022-12-31T21:36:36.428Z,118.97
2022-12-31T21:40:38.461Z,52.03
2022-12-31T21:44:40.336Z,68.97
2022-12-31T21:48:42.166Z,90.97
2022-12-31T21:52:44.127Z,103.93
2022-12-31T21:56:45.900Z,108.03
2022-12-31T22:01:08.532Z,106.40
2022-12-31T22:05:17.537Z,154.17
2022-12-31T22:09:23.255Z,129.93
2022-12-31T22:13:25.202Z,134.33
2022-12-31T22:17:26.948Z,111.83
2022-12-31T22:21:28.764Z,111.93
2022-12-31T22:25:32.226Z,106.80
2022-12-31T22:29:34.007Z,119.73
2022-12-31T22:33:35.893Z,117.40
2022-12-31T22:41:59.486Z,114.17
2022-12-31T22:46:16.482Z,133.67
2022-12-31T22:50:18.706Z,122.87
2022-12-31T22:54:20.568Z,129.77
2022-12-31T22:58:25.591Z,127.70
2022-12-31T23:02:27.417Z,128.07
2022-12-31T23:06:29.314Z,247.33
2022-12-31T23:10:49.647Z,274.30
2022-12-31T23:15:09.923Z,497.57
2022-12-31T23:19:31.470Z,504.13
2022-12-31T23:23:33.278Z,642.63
2022-12-31T23:27:35.139Z,650.70
2022-12-31T23:31:37.457Z,719.33
2022-12-31T23:35:39.315Z,720.63
2022-12-31T23:39:42.279Z,670.50
2022-12-31T23:43:44.621Z,899.63
2022-12-31T23:47:46.408Z,872.33
2022-12-31T23:51:48.281Z,893.40
2022-12-31T23:55:50.648Z,897.00
2022-12-31T23:59:52.399Z,890.57
